Time;durP1;ratioP1;P1;durP2;ratioP2;P2;SDS_P1;SDS_P2;PMS_P1;PMS_P2;Temp;Humidity;BMP_temperature;BMP_pressure;BME280_temperature;BME280_humidity;BME280_pressure;Samples;Min_cycle;Max_cycle;Signal;HPM_P1;HPM_P2
2023/05/07 00:01:11;;;;;;;10.20;3.70;;;14.40;99.90;;;;;;5059577;28;20398;-71
2023/05/07 00:03:37;;;;;;;12.23;3.90;;;14.40;99.90;;;;;;5041547;28;21002;-71
2023/05/07 00:06:04;;;;;;;12.93;4.00;;;14.40;99.90;;;;;;5056632;28;20929;-71
2023/05/07 00:08:30;;;;;;;13.90;3.92;;;14.40;99.90;;;;;;5062858;28;20521;-71
2023/05/07 00:10:56;;;;;;;9.95;3.63;;;14.40;99.90;;;;;;5066986;28;20419;-71
2023/05/07 00:13:23;;;;;;;12.37;3.30;;;14.40;99.90;;;;;;5062539;28;20514;-71
2023/05/07 00:15:49;;;;;;;10.82;3.45;;;14.40;99.90;;;;;;5058807;28;20838;-71
2023/05/07 00:18:15;;;;;;;9.57;3.22;;;14.40;99.90;;;;;;5057472;28;20881;-71
2023/05/07 00:20:42;;;;;;;12.33;3.80;;;14.40;99.90;;;;;;5062787;28;20996;-71
2023/05/07 00:23:08;;;;;;;11.07;3.80;;;14.30;99.90;;;;;;5062993;28;21122;-71
2023/05/07 00:25:34;;;;;;;10.18;3.28;;;14.20;99.90;;;;;;5077631;28;20744;-71
2023/05/07 00:28:03;;;;;;;12.05;3.60;;;14.20;99.90;;;;;;5064289;28;20772;-71
2023/05/07 00:30:29;;;;;;;10.43;3.60;;;14.20;99.90;;;;;;5075303;28;20503;-71
2023/05/07 00:32:56;;;;;;;12.95;3.60;;;14.20;99.90;;;;;;5063181;28;20426;-71
2023/05/07 00:35:22;;;;;;;10.35;3.28;;;14.20;99.90;;;;;;5060153;28;20424;-71
2023/05/07 00:37:48;;;;;;;10.23;3.85;;;14.20;99.90;;;;;;5056061;28;20482;-71
2023/05/07 00:40:14;;;;;;;8.65;3.13;;;14.20;99.90;;;;;;5078572;28;20478;-71
2023/05/07 00:42:41;;;;;;;11.23;3.55;;;14.10;99.90;;;;;;5041397;28;20410;-71
2023/05/07 00:45:08;;;;;;;12.98;3.80;;;14.20;99.90;;;;;;5061187;28;20403;-71
2023/05/07 00:47:34;;;;;;;11.82;3.60;;;14.30;99.90;;;;;;5063418;28;20419;-71
2023/05/07 00:50:00;;;;;;;11.80;3.42;;;14.30;99.90;;;;;;5066990;28;20419;-71
2023/05/07 00:52:28;;;;;;;9.85;3.55;;;14.30;99.90;;;;;;5064530;28;20906;-71
2023/05/07 00:54:55;;;;;;;9.27;3.53;;;14.20;99.90;;;;;;5057200;28;20424;-71
2023/05/07 00:57:22;;;;;;;9.47;3.33;;;14.20;99.90;;;;;;5061767;28;21077;-71
2023/05/07 00:59:50;;;;;;;7.57;3.10;;;14.30;99.90;;;;;;5085881;28;20417;-71
2023/05/07 01:02:17;;;;;;;8.98;3.40;;;14.30;99.90;;;;;;5064320;28;20406;-71
2023/05/07 01:04:43;;;;;;;9.63;3.17;;;14.30;99.90;;;;;;5080216;28;20407;-71
2023/05/07 01:07:10;;;;;;;10.38;3.40;;;14.30;99.90;;;;;;5042889;28;20967;-71
2023/05/07 01:09:37;;;;;;;7.80;2.97;;;14.30;99.90;;;;;;5068247;28;20418;-71
2023/05/07 01:12:05;;;;;;;11.18;3.28;;;14.40;99.90;;;;;;5066191;28;20413;-71
2023/05/07 01:14:32;;;;;;;9.38;3.30;;;14.40;99.90;;;;;;5068408;28;20771;-71
2023/05/07 01:16:59;;;;;;;11.77;3.37;;;14.40;99.90;;;;;;5065463;28;20442;-71
2023/05/07 01:19:28;;;;;;;13.60;3.45;;;14.40;99.90;;;;;;5080555;28;20858;-71
2023/05/07 01:22:07;;;;;;;12.68;3.80;;;14.50;99.90;;;;;;5057330;28;20499;-71
2023/05/07 01:24:36;;;;;;;11.02;3.65;;;14.50;99.90;;;;;;5075338;28;20789;-71
2023/05/07 01:27:03;;;;;;;10.97;3.33;;;14.30;99.90;;;;;;5065846;28;20448;-71
2023/05/07 01:29:29;;;;;;;12.55;3.35;;;14.30;99.90;;;;;;5064526;28;20419;-71
2023/05/07 01:32:02;;;;;;;11.77;3.33;;;14.30;99.90;;;;;;5075387;28;20432;-71
2023/05/07 01:34:34;;;;;;;9.40;3.40;;;14.30;99.90;;;;;;5062285;28;20411;-71
2023/05/07 01:37:01;;;;;;;8.52;3.30;;;14.40;99.90;;;;;;5068260;28;21311;-71
2023/05/07 01:39:29;;;;;;;11.93;3.40;;;14.40;99.90;;;;;;5064235;28;20416;-71
2023/05/07 01:41:56;;;;;;;11.43;3.03;;;14.30;99.90;;;;;;5058125;28;20406;-71
2023/05/07 01:44:24;;;;;;;9.73;3.33;;;14.30;99.90;;;;;;5061870;28;20483;-71
2023/05/07 01:46:50;;;;;;;10.45;3.33;;;14.30;99.90;;;;;;5060671;28;20439;-71
2023/05/07 01:49:18;;;;;;;9.85;3.00;;;14.30;99.90;;;;;;5065227;28;20399;-71
2023/05/07 01:51:44;;;;;;;8.75;3.05;;;14.20;99.90;;;;;;5078572;28;20405;-71
2023/05/07 01:54:11;;;;;;;10.30;3.15;;;14.20;99.90;;;;;;5061648;28;20417;-70
2023/05/07 01:56:37;;;;;;;9.30;3.20;;;14.30;99.90;;;;;;5065676;28;20464;-70
2023/05/07 01:59:03;;;;;;;11.25;3.22;;;14.20;99.90;;;;;;5058362;28;20409;-70
2023/05/07 02:01:29;;;;;;;9.13;3.20;;;14.20;99.90;;;;;;5080794;28;20407;-71
2023/05/07 02:03:56;;;;;;;11.00;3.25;;;14.30;99.90;;;;;;5067486;28;20420;-71
2023/05/07 02:06:22;;;;;;;9.60;3.28;;;14.30;99.90;;;;;;5057178;28;20412;-71
2023/05/07 02:08:48;;;;;;;10.35;3.00;;;14.20;99.90;;;;;;5066523;28;20539;-71
2023/05/07 02:11:14;;;;;;;10.25;3.20;;;14.30;99.90;;;;;;5079271;28;20498;-71
2023/05/07 02:13:41;;;;;;;8.20;2.97;;;14.30;99.90;;;;;;5067035;28;20417;-71
2023/05/07 02:16:07;;;;;;;11.73;3.35;;;14.30;99.90;;;;;;5064991;28;20416;-71
2023/05/07 02:18:35;;;;;;;9.65;3.13;;;14.20;99.90;;;;;;5060373;28;20413;-71
2023/05/07 02:21:01;;;;;;;12.60;3.40;;;14.20;99.90;;;;;;5080386;28;20405;-71
2023/05/07 02:23:27;;;;;;;11.07;3.20;;;14.20;99.90;;;;;;5064055;28;20415;-71
2023/05/07 02:25:53;;;;;;;10.27;3.30;;;14.20;99.90;;;;;;5060101;28;20400;-71
2023/05/07 02:28:20;;;;;;;7.38;2.95;;;14.30;99.90;;;;;;5063383;28;20982;-71
2023/05/07 02:30:46;;;;;;;8.43;2.97;;;14.30;99.90;;;;;;5060062;28;21264;-71
2023/05/07 02:33:13;;;;;;;8.75;3.13;;;14.20;99.90;;;;;;5063064;28;21247;-71
2023/05/07 02:35:40;;;;;;;8.73;3.22;;;14.10;99.90;;;;;;5061200;28;20412;-71
2023/05/07 02:38:06;;;;;;;9.18;2.97;;;14.10;99.90;;;;;;5076590;28;20867;-71
2023/05/07 02:40:38;;;;;;;12.98;3.22;;;14.10;99.90;;;;;;5061903;28;20411;-71
2023/05/07 02:43:05;;;;;;;10.07;3.38;;;14.00;99.90;;;;;;5058459;28;20417;-71
2023/05/07 02:45:33;;;;;;;8.43;3.17;;;14.00;99.90;;;;;;5059689;28;20411;-71
2023/05/07 02:47:59;;;;;;;11.48;3.28;;;14.00;99.90;;;;;;5067180;28;20423;-71
2023/05/07 02:50:26;;;;;;;7.38;2.67;;;14.00;99.90;;;;;;5060695;28;20778;-71
2023/05/07 02:52:53;;;;;;;9.50;3.40;;;14.00;99.90;;;;;;5054174;28;20411;-71
2023/05/07 02:55:19;;;;;;;12.15;3.40;;;14.00;99.90;;;;;;5060564;28;20505;-71
2023/05/07 02:57:45;;;;;;;13.20;3.20;;;14.00;99.90;;;;;;5069326;28;20554;-71
2023/05/07 03:00:19;;;;;;;9.68;3.30;;;14.00;99.90;;;;;;5044577;28;20407;-71
2023/05/07 03:02:45;;;;;;;8.05;3.10;;;14.10;99.90;;;;;;5062161;28;20918;-71
2023/05/07 03:05:12;;;;;;;9.60;3.22;;;14.10;99.90;;;;;;5056176;28;20890;-71
2023/05/07 03:07:38;;;;;;;9.13;3.17;;;14.10;99.90;;;;;;5062602;28;20714;-71
2023/05/07 03:10:06;;;;;;;11.75;3.28;;;14.10;99.90;;;;;;5062667;28;20467;-71
2023/05/07 03:12:32;;;;;;;10.45;3.08;;;14.00;99.90;;;;;;5061730;28;20496;-71
2023/05/07 03:14:58;;;;;;;11.93;3.53;;;14.00;99.90;;;;;;5065320;28;20510;-71
2023/05/07 03:17:25;;;;;;;11.13;3.25;;;14.10;99.90;;;;;;5063745;28;20763;-71
2023/05/07 03:19:51;;;;;;;12.48;3.70;;;14.10;99.90;;;;;;5070384;28;20549;-71
2023/05/07 03:22:17;;;;;;;11.13;3.38;;;14.10;99.90;;;;;;5077466;28;20958;-71
2023/05/07 03:24:43;;;;;;;11.63;3.58;;;14.10;99.90;;;;;;5063730;28;20450;-71
2023/05/07 03:27:10;;;;;;;9.30;3.10;;;14.10;99.90;;;;;;5064482;28;20443;-71
2023/05/07 03:29:36;;;;;;;11.85;3.55;;;14.10;99.90;;;;;;5074145;28;20408;-71
2023/05/07 03:32:02;;;;;;;7.55;2.90;;;14.20;99.90;;;;;;5066085;28;20423;-71
2023/05/07 03:34:28;;;;;;;9.98;3.10;;;14.20;99.90;;;;;;5065736;28;20427;-71
2023/05/07 03:36:55;;;;;;;9.98;3.20;;;14.20;99.90;;;;;;5059384;28;20411;-71
2023/05/07 03:39:21;;;;;;;9.80;3.30;;;14.20;99.90;;;;;;5063250;28;20473;-71
2023/05/07 03:41:48;;;;;;;10.60;3.10;;;14.20;99.90;;;;;;5063354;28;20423;-71
2023/05/07 03:44:14;;;;;;;9.63;2.90;;;14.10;99.90;;;;;;5077177;28;20418;-71
2023/05/07 03:46:40;;;;;;;9.45;3.10;;;14.20;99.90;;;;;;5074355;28;20459;-71
2023/05/07 03:49:06;;;;;;;7.35;2.90;;;14.20;99.90;;;;;;5059681;28;20410;-71
2023/05/07 03:51:32;;;;;;;9.95;3.17;;;14.30;99.90;;;;;;5078418;28;20407;-71
2023/05/07 03:53:59;;;;;;;8.88;3.15;;;14.30;99.90;;;;;;5055778;28;20412;-71
2023/05/07 03:56:27;;;;;;;12.10;3.30;;;14.30;99.90;;;;;;5063820;28;20395;-71
2023/05/07 03:58:54;;;;;;;8.65;2.90;;;14.40;99.90;;;;;;5061304;28;20438;-71
2023/05/07 04:01:20;;;;;;;11.80;3.10;;;14.30;99.90;;;;;;5080024;28;20528;-71
2023/05/07 04:03:46;;;;;;;11.88;3.53;;;14.40;99.90;;;;;;5062324;28;20504;-71
2023/05/07 04:06:12;;;;;;;10.27;3.40;;;14.40;99.90;;;;;;5057120;28;20416;-71
2023/05/07 04:08:39;;;;;;;9.77;3.00;;;14.50;99.90;;;;;;5062822;28;20476;-71
2023/05/07 04:11:05;;;;;;;10.00;3.22;;;14.50;99.90;;;;;;5064871;28;20411;-71
2023/05/07 04:13:31;;;;;;;8.73;2.80;;;14.60;99.90;;;;;;5059750;28;20495;-71
2023/05/07 04:15:58;;;;;;;10.40;3.00;;;14.70;99.90;;;;;;5076380;28;20584;-71
2023/05/07 04:18:24;;;;;;;11.75;3.10;;;14.70;99.90;;;;;;5060497;28;20415;-71
2023/05/07 04:20:50;;;;;;;11.25;2.95;;;14.70;99.90;;;;;;5066121;28;20526;-71
2023/05/07 04:23:17;;;;;;;12.97;3.23;;;14.80;99.90;;;;;;5063965;28;20461;-71
2023/05/07 04:25:43;;;;;;;11.80;3.13;;;14.90;99.90;;;;;;5059257;28;20518;-71
2023/05/07 04:28:09;;;;;;;9.18;2.85;;;14.90;99.90;;;;;;5056415;28;20446;-71
2023/05/07 04:30:35;;;;;;;10.10;3.00;;;15.00;99.90;;;;;;5063273;28;20412;-71
2023/05/07 04:33:02;;;;;;;7.53;2.78;;;15.10;99.90;;;;;;5059614;28;20772;-71
2023/05/07 04:35:28;;;;;;;8.32;2.88;;;15.20;99.90;;;;;;5063868;28;20824;-71
2023/05/07 04:37:54;;;;;;;9.45;2.83;;;15.30;99.90;;;;;;5065581;28;20399;-71
2023/05/07 04:40:21;;;;;;;7.90;2.75;;;15.40;99.90;;;;;;5058831;28;20400;-71
2023/05/07 04:42:47;;;;;;;11.02;2.95;;;15.50;99.90;;;;;;5061261;28;20434;-71
2023/05/07 04:45:13;;;;;;;10.32;3.00;;;15.50;99.90;;;;;;5063133;28;20417;-71
2023/05/07 04:47:39;;;;;;;8.77;2.90;;;15.60;99.90;;;;;;5062810;28;20423;-71
2023/05/07 04:50:08;;;;;;;9.88;2.90;;;15.60;99.90;;;;;;5075636;28;20452;-71
2023/05/07 04:52:34;;;;;;;7.43;2.67;;;15.60;99.90;;;;;;5059409;28;20410;-71
2023/05/07 04:55:01;;;;;;;7.90;2.53;;;15.60;99.90;;;;;;5060297;28;20416;-71
2023/05/07 04:57:27;;;;;;;9.48;2.72;;;15.70;99.90;;;;;;5076845;28;20412;-71
2023/05/07 04:59:57;;;;;;;9.18;2.78;;;15.80;99.90;;;;;;5056800;28;20395;-71
2023/05/07 05:02:24;;;;;;;6.93;2.40;;;15.90;99.90;;;;;;5061802;28;20805;-71
2023/05/07 05:04:50;;;;;;;7.00;2.67;;;15.90;99.90;;;;;;5064254;28;21207;-71
2023/05/07 05:07:16;;;;;;;8.25;2.80;;;16.00;99.90;;;;;;5057322;28;20410;-71
2023/05/07 05:09:42;;;;;;;8.45;2.70;;;16.10;99.90;;;;;;5053199;28;21160;-71
2023/05/07 05:12:09;;;;;;;9.20;2.90;;;16.10;99.90;;;;;;5060787;28;20486;-71
2023/05/07 05:14:35;;;;;;;8.30;2.90;;;16.20;99.90;;;;;;5060755;28;20513;-71
2023/05/07 05:17:01;;;;;;;10.18;3.00;;;16.20;99.90;;;;;;5050573;28;20467;-71
2023/05/07 05:19:27;;;;;;;8.82;2.70;;;16.20;99.90;;;;;;5055688;28;20589;-71
2023/05/07 05:21:53;;;;;;;8.07;2.60;;;16.20;99.90;;;;;;5042043;28;20401;-71
2023/05/07 05:24:20;;;;;;;8.27;2.50;;;16.20;99.90;;;;;;5044985;28;20431;-71
2023/05/07 05:26:46;;;;;;;8.97;2.90;;;16.30;99.90;;;;;;5056664;28;20415;-71
2023/05/07 05:29:12;;;;;;;8.38;2.67;;;16.30;99.90;;;;;;5062039;28;20450;-71
2023/05/07 05:31:38;;;;;;;9.32;2.53;;;16.40;99.90;;;;;;5062160;28;20413;-71
2023/05/07 05:34:04;;;;;;;6.85;2.60;;;16.50;99.90;;;;;;5063152;28;20415;-71
2023/05/07 05:36:31;;;;;;;6.45;2.63;;;16.50;99.90;;;;;;5065775;28;20408;-71
2023/05/07 05:38:57;;;;;;;6.00;2.33;;;16.50;99.90;;;;;;5061996;28;20415;-71
2023/05/07 05:41:23;;;;;;;7.88;2.10;;;16.60;99.90;;;;;;5065822;28;20824;-71
2023/05/07 05:43:49;;;;;;;7.70;2.10;;;16.60;99.90;;;;;;5063409;28;21408;-71
2023/05/07 05:46:16;;;;;;;6.22;2.15;;;16.70;99.90;;;;;;5063828;28;20472;-71
2023/05/07 05:48:42;;;;;;;7.55;2.05;;;16.80;99.90;;;;;;5078087;28;20482;-71
2023/05/07 05:51:08;;;;;;;8.52;2.20;;;17.00;99.90;;;;;;5065952;28;20421;-71
2023/05/07 05:53:35;;;;;;;5.68;2.10;;;17.10;99.90;;;;;;5066609;28;20402;-71
2023/05/07 05:56:01;;;;;;;4.47;1.92;;;17.00;99.90;;;;;;5063109;28;20412;-71
2023/05/07 05:58:27;;;;;;;7.53;2.37;;;17.00;99.90;;;;;;5064456;28;20461;-71
2023/05/07 06:00:54;;;;;;;5.38;1.98;;;17.10;99.90;;;;;;5062425;28;20429;-71
2023/05/07 06:03:20;;;;;;;5.28;2.10;;;17.10;99.90;;;;;;5064615;28;20400;-71
2023/05/07 06:05:46;;;;;;;5.53;2.00;;;17.10;99.90;;;;;;5061254;28;20412;-71
2023/05/07 06:08:13;;;;;;;6.50;1.98;;;17.20;99.90;;;;;;5042437;28;20465;-71
2023/05/07 06:10:40;;;;;;;8.25;2.33;;;17.30;99.90;;;;;;5077857;28;20419;-71
2023/05/07 06:13:06;;;;;;;6.47;2.50;;;17.30;99.90;;;;;;5061541;28;20463;-71
2023/05/07 06:15:32;;;;;;;4.63;1.80;;;17.30;99.90;;;;;;5065039;28;20412;-71
2023/05/07 06:17:58;;;;;;;3.58;1.50;;;17.20;99.90;;;;;;5062031;28;20564;-71
2023/05/07 06:20:25;;;;;;;6.55;1.90;;;17.20;99.90;;;;;;5062683;28;20930;-71
2023/05/07 06:22:52;;;;;;;6.60;2.20;;;17.20;99.90;;;;;;5060389;28;20940;-71
2023/05/07 06:25:19;;;;;;;4.97;2.10;;;17.40;99.90;;;;;;5063180;28;20446;-71
2023/05/07 06:27:45;;;;;;;5.47;2.05;;;17.50;99.90;;;;;;5062920;28;20423;-71
2023/05/07 06:30:12;;;;;;;4.65;1.70;;;17.50;99.90;;;;;;5066021;28;20412;-71
2023/05/07 06:32:40;;;;;;;5.95;2.08;;;17.40;99.90;;;;;;5061498;28;20403;-71
2023/05/07 06:35:07;;;;;;;6.20;2.00;;;17.50;99.90;;;;;;5062626;28;20423;-71
2023/05/07 06:37:33;;;;;;;5.15;2.08;;;17.40;99.90;;;;;;5061177;28;20823;-71
2023/05/07 06:39:59;;;;;;;5.32;1.92;;;17.40;99.90;;;;;;5067848;28;20410;-71
2023/05/07 06:42:26;;;;;;;7.77;2.30;;;17.30;99.90;;;;;;5061409;28;20422;-71
2023/05/07 06:44:52;;;;;;;6.47;2.13;;;17.30;99.90;;;;;;5065330;28;20516;-71
2023/05/07 06:47:18;;;;;;;5.60;1.97;;;17.40;99.90;;;;;;5045667;28;20438;-71
2023/05/07 06:49:45;;;;;;;8.50;2.15;;;17.50;99.90;;;;;;5065563;28;20424;-71
2023/05/07 06:52:11;;;;;;;6.15;1.80;;;17.60;99.90;;;;;;5065979;28;20419;-71
2023/05/07 06:54:37;;;;;;;5.97;1.98;;;17.70;99.90;;;;;;5066041;28;21719;-71
2023/05/07 06:57:03;;;;;;;5.70;1.95;;;17.90;99.90;;;;;;5062493;28;20488;-71
2023/05/07 06:59:29;;;;;;;6.47;1.90;;;18.00;99.90;;;;;;5077478;28;20520;-71
2023/05/07 07:01:56;;;;;;;6.32;2.15;;;18.00;99.90;;;;;;5057124;28;20417;-71
2023/05/07 07:04:23;;;;;;;5.97;1.83;;;18.10;99.90;;;;;;5061802;28;20417;-71
2023/05/07 07:06:52;;;;;;;7.00;2.25;;;18.00;99.90;;;;;;5060517;28;20576;-71
2023/05/07 07:09:18;;;;;;;6.43;2.03;;;18.00;99.90;;;;;;5043521;28;20910;-71
2023/05/07 07:11:45;;;;;;;8.07;2.13;;;18.00;99.90;;;;;;5056230;28;20190;-71
2023/05/07 07:14:12;;;;;;;5.03;1.80;;;18.10;99.90;;;;;;5063325;28;20852;-71
2023/05/07 07:16:39;;;;;;;4.80;1.70;;;18.20;99.90;;;;;;5078223;28;20202;-71
2023/05/07 07:19:05;;;;;;;5.07;1.90;;;18.20;99.90;;;;;;5070689;28;20201;-71
2023/05/07 07:21:31;;;;;;;7.47;1.93;;;18.20;99.90;;;;;;5065567;28;20640;-71
2023/05/07 07:23:58;;;;;;;2.77;1.60;;;18.20;99.90;;;;;;5048460;28;20236;-71
2023/05/07 07:26:24;;;;;;;4.80;1.93;;;18.20;99.90;;;;;;5068468;28;20178;-71
2023/05/07 07:28:50;;;;;;;7.60;2.23;;;18.20;99.90;;;;;;5060877;28;20194;-71
2023/05/07 07:31:16;;;;;;;8.20;2.23;;;18.20;99.90;;;;;;5072830;28;20683;-71
2023/05/07 07:33:43;;;;;;;7.73;2.50;;;18.20;99.90;;;;;;5045825;28;20186;-71
2023/05/07 07:36:10;;;;;;;8.87;2.57;;;18.40;99.90;;;;;;5048629;28;20215;-71
2023/05/07 07:38:36;;;;;;;8.47;2.10;;;18.40;99.90;;;;;;5045137;28;20180;-71
2023/05/07 07:41:03;;;;;;;9.27;2.37;;;18.50;99.90;;;;;;5076224;28;20188;-71
2023/05/07 07:43:29;;;;;;;7.77;2.07;;;18.50;99.90;;;;;;5060263;28;20191;-71
2023/05/07 07:45:55;;;;;;;7.27;1.93;;;18.50;99.90;;;;;;5059181;28;20183;-71
2023/05/07 07:48:21;;;;;;;8.13;2.53;;;18.40;99.90;;;;;;5064188;28;20708;-71
2023/05/07 07:50:51;;;;;;;5.83;2.33;;;18.30;99.90;;;;;;5059906;28;20187;-71
2023/05/07 07:53:18;;;;;;;7.57;2.20;;;18.40;99.90;;;;;;5067501;28;20228;-71
2023/05/07 07:55:44;;;;;;;5.93;1.90;;;18.60;99.90;;;;;;5065562;28;20220;-71
2023/05/07 07:58:10;;;;;;;5.73;1.97;;;18.80;99.90;;;;;;5064417;28;20237;-71
2023/05/07 08:00:37;;;;;;;7.53;2.10;;;19.00;99.90;;;;;;5065566;28;20300;-71
2023/05/07 08:03:03;;;;;;;7.40;2.30;;;19.10;99.90;;;;;;5060808;28;20187;-71
2023/05/07 08:05:29;;;;;;;4.90;2.00;;;19.00;99.90;;;;;;5075284;28;20549;-71
2023/05/07 08:07:55;;;;;;;6.43;2.33;;;18.90;99.90;;;;;;5065680;28;20270;-71
2023/05/07 08:10:22;;;;;;;8.83;2.53;;;18.90;99.90;;;;;;5059985;28;20732;-71
2023/05/07 08:12:50;;;;;;;7.13;2.20;;;18.80;99.90;;;;;;5064400;28;20209;-71
2023/05/07 08:15:17;;;;;;;5.60;2.50;;;18.80;99.90;;;;;;5075510;28;20482;-71
2023/05/07 08:17:46;;;;;;;4.73;2.00;;;18.80;99.90;;;;;;5054206;28;21056;-71
2023/05/07 08:20:13;;;;;;;5.17;2.27;;;18.90;99.90;;;;;;5061331;28;20191;-71
2023/05/07 08:22:40;;;;;;;11.40;2.67;;;19.00;99.90;;;;;;5058675;28;20672;-71
2023/05/07 08:25:06;;;;;;;8.33;2.50;;;19.00;99.90;;;;;;5063114;28;20992;-71
2023/05/07 08:27:34;;;;;;;5.90;2.10;;;18.80;99.90;;;;;;5056999;28;20207;-71
2023/05/07 08:30:00;;;;;;;6.40;2.00;;;18.80;99.90;;;;;;5084853;28;20273;-71
2023/05/07 08:32:28;;;;;;;7.70;2.10;;;19.00;99.90;;;;;;5044460;28;20381;-71
2023/05/07 08:34:54;;;;;;;6.83;2.33;;;19.20;99.90;;;;;;5037619;28;20629;-71
2023/05/07 08:37:21;;;;;;;6.67;2.47;;;19.40;99.90;;;;;;5052457;28;20281;-71
2023/05/07 08:39:47;;;;;;;7.13;2.50;;;19.40;99.90;;;;;;5058868;28;20296;-72
2023/05/07 08:42:16;;;;;;;7.00;2.00;;;19.50;99.90;;;;;;5054442;28;20198;-71
2023/05/07 08:44:49;;;;;;;6.70;2.20;;;19.40;99.90;;;;;;5061016;28;20213;-71
2023/05/07 08:47:17;;;;;;;10.27;2.43;;;19.30;99.90;;;;;;5057630;28;20203;-71
2023/05/07 08:49:43;;;;;;;5.23;2.20;;;19.20;99.90;;;;;;5052099;28;20191;-71
2023/05/07 08:52:11;;;;;;;7.40;2.27;;;19.10;99.90;;;;;;5079859;28;20217;-71
2023/05/07 08:54:38;;;;;;;8.23;2.47;;;19.00;99.90;;;;;;5058251;28;20198;-71
2023/05/07 08:57:04;;;;;;;6.10;2.53;;;18.90;99.90;;;;;;5059451;28;20211;-71
2023/05/07 08:59:31;;;;;;;8.07;2.50;;;18.80;99.90;;;;;;5024999;28;20183;-71
2023/05/07 09:01:57;;;;;;;8.97;2.50;;;18.70;99.90;;;;;;5048867;28;20245;-71
2023/05/07 09:04:23;;;;;;;8.93;2.20;;;18.70;99.90;;;;;;5053270;28;20194;-71
2023/05/07 09:06:51;;;;;;;8.27;2.70;;;18.70;99.90;;;;;;5056130;28;20293;-71
2023/05/07 09:09:20;;;;;;;5.90;2.33;;;18.60;99.90;;;;;;5062018;28;20183;-71
2023/05/07 09:11:46;;;;;;;7.83;2.40;;;18.70;99.90;;;;;;5072486;28;20268;-71
2023/05/07 09:14:13;;;;;;;5.73;2.03;;;18.70;99.90;;;;;;5065752;28;20530;-71
2023/05/07 09:16:39;;;;;;;6.53;2.20;;;18.80;99.90;;;;;;5064453;28;20629;-71
2023/05/07 09:19:06;;;;;;;6.43;2.40;;;18.90;99.90;;;;;;5064011;28;20191;-71
2023/05/07 09:21:32;;;;;;;6.37;2.50;;;19.00;99.90;;;;;;5063730;28;20286;-71
2023/05/07 09:23:59;;;;;;;6.17;2.20;;;19.00;99.90;;;;;;5061365;28;20207;-71
2023/05/07 09:26:27;;;;;;;8.00;2.20;;;18.90;99.90;;;;;;5064899;28;20596;-71
2023/05/07 09:28:53;;;;;;;9.27;2.77;;;18.80;99.90;;;;;;5042510;28;20264;-71
2023/05/07 09:31:23;;;;;;;5.70;2.03;;;18.80;99.90;;;;;;5047046;28;20203;-71
2023/05/07 09:33:49;;;;;;;6.40;2.07;;;18.80;99.90;;;;;;5068961;28;20197;-71
2023/05/07 09:36:16;;;;;;;7.83;2.53;;;18.80;99.90;;;;;;5063708;28;20582;-71
2023/05/07 09:38:42;;;;;;;7.50;2.90;;;18.90;99.90;;;;;;5052898;28;20722;-71
2023/05/07 09:41:13;;;;;;;8.60;2.40;;;18.90;99.90;;;;;;5063438;28;20187;-71
2023/05/07 09:43:40;;;;;;;5.80;1.97;;;19.00;99.90;;;;;;5060733;28;20307;-71
2023/05/07 09:46:20;;;;;;;5.80;2.07;;;19.00;99.90;;;;;;5069766;28;20743;-71
2023/05/07 09:48:48;;;;;;;8.00;2.57;;;19.00;99.90;;;;;;5054355;28;20213;-71
2023/05/07 09:51:41;;;;;;;12.90;2.47;;;19.00;99.90;;;;;;5048772;28;20190;-71
2023/05/07 09:54:08;;;;;;;7.47;1.97;;;18.90;99.90;;;;;;5079497;28;20214;-71
2023/05/07 09:56:37;;;;;;;8.23;2.20;;;19.10;99.90;;;;;;5062548;28;20229;-71
2023/05/07 09:59:06;;;;;;;7.77;2.10;;;19.20;99.90;;;;;;5062464;28;20190;-71
2023/05/07 10:01:36;;;;;;;7.30;2.20;;;19.20;99.90;;;;;;5059232;28;20190;-71
2023/05/07 10:04:04;;;;;;;10.47;2.63;;;19.20;99.90;;;;;;5064826;28;20247;-71
2023/05/07 10:06:31;;;;;;;9.73;2.90;;;19.10;99.90;;;;;;5066436;28;20194;-71
2023/05/07 10:08:59;;;;;;;8.83;2.63;;;19.00;99.90;;;;;;5061547;28;20202;-71
2023/05/07 10:11:25;;;;;;;9.87;2.87;;;18.80;99.90;;;;;;5062694;28;21041;-71
2023/05/07 10:13:53;;;;;;;7.67;2.30;;;18.60;99.90;;;;;;5059391;28;20202;-72
2023/05/07 10:16:21;;;;;;;6.20;2.33;;;18.50;99.90;;;;;;5074129;28;20673;-71
2023/05/07 10:19:26;;;;;;;9.83;2.63;;;18.40;99.90;;;;;;5059995;28;20187;-71
2023/05/07 10:22:02;;;;;;;5.37;2.63;;;18.20;99.90;;;;;;5063765;28;20658;-71
2023/05/07 10:24:36;;;;;;;10.60;2.93;;;17.90;99.90;;;;;;5062868;28;20589;-71
2023/05/07 10:27:09;;;;;;;8.30;3.00;;;17.70;99.90;;;;;;5077333;28;20186;-71
2023/05/07 10:29:56;;;;;;;11.80;3.30;;;17.60;99.90;;;;;;5082010;28;20322;-71
2023/05/07 10:32:36;;;;;;;9.57;3.30;;;17.50;99.90;;;;;;5064035;28;20274;-71
2023/05/07 10:35:10;;;;;;;7.23;2.90;;;17.40;99.90;;;;;;5057572;28;20223;-71
2023/05/07 10:37:37;;;;;;;8.97;3.13;;;17.30;99.90;;;;;;5058633;28;20190;-71
2023/05/07 10:40:06;;;;;;;7.20;3.07;;;17.30;99.90;;;;;;5059929;28;20191;-71
2023/05/07 10:42:33;;;;;;;8.70;3.70;;;17.30;99.90;;;;;;5082564;28;20194;-71
2023/05/07 10:45:16;;;;;;;10.57;3.33;;;17.20;99.90;;;;;;5059813;28;20178;-71
2023/05/07 10:48:13;;;;;;;12.37;3.47;;;17.20;99.90;;;;;;5057996;28;20585;-71
2023/05/07 10:50:41;;;;;;;10.57;3.57;;;17.10;99.90;;;;;;5074414;28;20186;-71
2023/05/07 10:53:17;;;;;;;12.50;3.60;;;17.00;99.90;;;;;;5080505;28;20194;-71
2023/05/07 10:55:48;;;;;;;6.17;3.00;;;16.90;99.90;;;;;;5074663;28;20218;-71
2023/05/07 10:58:33;;;;;;;12.53;3.73;;;16.90;99.90;;;;;;5057745;28;20996;-71
2023/05/07 11:01:03;;;;;;;10.37;3.83;;;16.90;99.90;;;;;;5057197;28;20194;-71
2023/05/07 11:03:30;;;;;;;9.93;3.33;;;16.90;99.90;;;;;;5041849;28;20227;-71
2023/05/07 11:06:14;;;;;;;9.00;3.37;;;17.00;99.90;;;;;;5065170;28;20899;-71
2023/05/07 11:08:52;;;;;;;7.40;3.17;;;17.00;99.90;;;;;;5058420;28;20221;-72
2023/05/07 11:11:19;;;;;;;7.70;3.20;;;16.90;99.90;;;;;;5044468;28;20261;-71
2023/05/07 11:13:49;;;;;;;10.70;3.40;;;16.90;99.90;;;;;;5080820;28;20591;-71
2023/05/07 11:16:20;;;;;;;7.87;3.37;;;17.10;99.90;;;;;;5060918;28;20220;-71
2023/05/07 11:18:56;;;;;;;10.40;3.00;;;17.20;99.90;;;;;;5075519;28;20210;-72
2023/05/07 11:21:42;;;;;;;9.57;3.60;;;17.20;99.90;;;;;;5058281;28;20708;-71
2023/05/07 11:24:10;;;;;;;9.00;3.03;;;17.30;99.90;;;;;;5060108;28;20194;-72
2023/05/07 11:26:49;;;;;;;6.67;2.90;;;17.20;99.90;;;;;;5062235;28;20191;-71
2023/05/07 11:29:21;;;;;;;8.10;3.03;;;17.20;99.90;;;;;;5055654;28;20214;-71
2023/05/07 11:31:55;;;;;;;9.77;3.43;;;17.10;99.90;;;;;;5057247;28;20187;-71
2023/05/07 11:34:26;;;;;;;9.07;3.53;;;17.10;99.90;;;;;;5068341;28;20746;-71
2023/05/07 11:36:53;;;;;;;7.60;2.90;;;17.10;99.90;;;;;;5056013;28;20198;-71
2023/05/07 11:39:33;;;;;;;10.10;3.13;;;17.40;99.90;;;;;;5038280;28;20192;-71
2023/05/07 11:42:02;;;;;;;9.50;3.23;;;17.60;99.90;;;;;;5055086;28;20677;-71
2023/05/07 11:44:45;;;;;;;7.63;3.10;;;17.60;99.90;;;;;;5064275;28;20182;-71
2023/05/07 11:47:18;;;;;;;5.23;3.00;;;17.70;99.90;;;;;;5064579;28;20194;-71
2023/05/07 11:49:51;;;;;;;8.07;3.50;;;17.70;99.90;;;;;;5058029;28;20183;-71
2023/05/07 11:52:20;;;;;;;9.57;3.33;;;17.70;99.90;;;;;;5063769;28;20190;-71
2023/05/07 11:54:59;;;;;;;8.83;3.17;;;17.70;99.90;;;;;;5062751;28;20265;-71
2023/05/07 11:57:26;;;;;;;7.83;3.33;;;17.90;99.90;;;;;;5073112;28;20198;-71
2023/05/07 11:59:58;;;;;;;11.33;3.10;;;18.00;99.90;;;;;;5057471;28;20199;-72
2023/05/07 12:02:25;;;;;;;13.57;3.40;;;17.90;99.90;;;;;;5062749;28;20191;-71
2023/05/07 12:04:52;;;;;;;11.53;3.10;;;17.80;99.90;;;;;;5073087;28;20190;-71
2023/05/07 12:07:19;;;;;;;7.67;3.20;;;17.90;99.90;;;;;;5077976;28;20234;-71
2023/05/07 12:09:47;;;;;;;9.50;2.80;;;18.00;99.90;;;;;;5057034;28;20183;-71
2023/05/07 12:12:17;;;;;;;9.00;4.20;;;18.10;99.90;;;;;;5070922;28;20561;-71
2023/05/07 12:14:45;;;;;;;6.87;2.80;;;18.20;99.90;;;;;;5062148;28;20249;-71
2023/05/07 12:17:14;;;;;;;8.23;3.33;;;18.10;99.90;;;;;;5061467;28;20301;-71
2023/05/07 12:19:43;;;;;;;9.83;3.20;;;18.10;99.90;;;;;;5056160;28;20721;-71
2023/05/07 12:22:10;;;;;;;11.10;3.60;;;18.10;99.90;;;;;;5069110;28;20194;-71
2023/05/07 12:25:03;;;;;;;9.87;3.10;;;18.10;99.90;;;;;;5062268;28;20202;-71
2023/05/07 12:27:30;;;;;;;8.80;3.73;;;18.10;99.90;;;;;;5056303;28;20205;-71
2023/05/07 12:29:59;;;;;;;8.10;3.20;;;18.10;99.90;;;;;;5053581;28;20187;-71
2023/05/07 12:32:26;;;;;;;7.03;3.30;;;18.00;99.90;;;;;;5053580;28;20187;-71
2023/05/07 12:34:52;;;;;;;9.40;3.10;;;18.10;99.90;;;;;;5054993;28;20202;-71
2023/05/07 12:37:26;;;;;;;7.07;2.90;;;18.10;99.90;;;;;;5054930;28;20553;-71
2023/05/07 12:40:10;;;;;;;5.57;2.70;;;18.10;99.90;;;;;;5058360;28;20266;-71
2023/05/07 12:42:38;;;;;;;6.13;2.87;;;18.20;99.90;;;;;;5055477;28;20268;-71
2023/05/07 12:45:15;;;;;;;7.17;2.60;;;18.10;99.90;;;;;;5060903;28;20189;-71
2023/05/07 12:47:46;;;;;;;8.33;2.90;;;18.10;99.90;;;;;;5059198;28;20194;-71